Containerships 6 — DABH — position and weather

sailwx.info

Track history (hours):
 
Tides and Currents Weather Stations Pressure Air Temp Water Temp Dewpoint Dewpoint Depression Visibility Wind Speed Wind Dir Waves Ship Positions

Containerships 6

Last reported at 2015-Jul-27 23:09 UTC. Time now 2015-Jul-28 17:46 UTC.
Position N 57°47' E 010°21'.

Length 155 m; beam 21.8 m; draft 8.9 m.

Type: Ship (hazmat cat A). MMSI: 211315096.

Date/timePositionNaut miles runAvg speedWind from/ knotsBaromVisibWave heightAir tempDewpointWater temp
2015-Jul-27 23:09N 57°47' E 010°21'916.1
2015-Jul-27 22:33N 57°49' E 010°38'1515.1
2015-Jul-27 21:33N 57°41' E 011°02'1716.8
2015-Jul-27 20:33N 57°29' E 011°24'1616.2
2015-Jul-27 19:33N 57°14' E 011°36'1716.6
2015-Jul-27 18:33N 56°59' E 011°46'1616.0
2015-Jul-27 17:33N 56°44' E 011°59'1716.1
2015-Jul-27 16:32N 56°30' E 012°13'1616.5
2015-Jul-27 15:34N 56°15' E 012°24'1716.8
2015-Jul-27 14:33N 56°01' E 012°40'1615.9
2015-Jul-27 13:33N 55°45' E 012°42'1312.8
2015-Jul-27 12:33N 55°32' E 012°43'1514.7
2015-Jul-27 11:34N 55°18' E 012°43'1716.5
2015-Jul-27 10:34N 55°15' E 013°12'1716.8
2015-Jul-27 09:33N 55°14' E 013°41'1716.5
2015-Jul-27 08:33N 55°13' E 014°10'1615.6
2015-Jul-27 07:33N 55°23' E 014°31'1615.7
2015-Jul-27 06:34N 55°27' E 014°58'1716.7
2015-Jul-27 05:34N 55°27' E 015°28'1716.7
2015-Jul-27 04:33N 55°28' E 015°57'311 8.8
2015-Jul-25 17:24N 59°23' E 022°16'1619.1
2015-Jul-25 16:33N 59°31' E 022°43'1919.3
2015-Jul-25 15:33N 59°37' E 023°19'1919.2
2015-Jul-25 14:33N 59°43' E 023°55'1919.1
2015-Jul-25 13:34N 59°49' E 024°31'1918.7
2015-Jul-25 12:34N 59°58' E 025°03'1514.1
2015-Jul-25 11:30N 60°13' E 025°12'  
2015-Jul-19 14:33N 60°13' E 025°12'  
Track history (hours):
 
Tides and Currents Weather Stations Pressure Air Temp Water Temp Dewpoint Dewpoint Depression Visibility Wind Speed Wind Dir Waves Ship Positions

Containerships 6

Last reported at 2015-Jul-27 23:09 UTC. Time now 2015-Jul-28 17:46 UTC.
Position N 57°47' E 010°21'.

Length 155 m; beam 21.8 m; draft 8.9 m.

Type: Ship (hazmat cat A). MMSI: 211315096.

Date/timePositionNaut miles runAvg speedWind from/ knotsBaromVisibWave heightAir tempDewpointWater temp
2015-Jul-27 23:09N 57°47' E 010°21'916.1
2015-Jul-27 22:33N 57°49' E 010°38'1515.1
2015-Jul-27 21:33N 57°41' E 011°02'1716.8
2015-Jul-27 20:33N 57°29' E 011°24'1616.2
2015-Jul-27 19:33N 57°14' E 011°36'1716.6
2015-Jul-27 18:33N 56°59' E 011°46'1616.0
2015-Jul-27 17:33N 56°44' E 011°59'1716.1
2015-Jul-27 16:32N 56°30' E 012°13'1616.5
2015-Jul-27 15:34N 56°15' E 012°24'1716.8
2015-Jul-27 14:33N 56°01' E 012°40'1615.9
2015-Jul-27 13:33N 55°45' E 012°42'1312.8
2015-Jul-27 12:33N 55°32' E 012°43'1514.7
2015-Jul-27 11:34N 55°18' E 012°43'1716.5
2015-Jul-27 10:34N 55°15' E 013°12'1716.8
2015-Jul-27 09:33N 55°14' E 013°41'1716.5
2015-Jul-27 08:33N 55°13' E 014°10'1615.6
2015-Jul-27 07:33N 55°23' E 014°31'1615.7
2015-Jul-27 06:34N 55°27' E 014°58'1716.7
2015-Jul-27 05:34N 55°27' E 015°28'1716.7
2015-Jul-27 04:33N 55°28' E 015°57'311 8.8
2015-Jul-25 17:24N 59°23' E 022°16'1619.1
2015-Jul-25 16:33N 59°31' E 022°43'1919.3
2015-Jul-25 15:33N 59°37' E 023°19'1919.2
2015-Jul-25 14:33N 59°43' E 023°55'1919.1
2015-Jul-25 13:34N 59°49' E 024°31'1918.7
2015-Jul-25 12:34N 59°58' E 025°03'1514.1
2015-Jul-25 11:30N 60°13' E 025°12'  
2015-Jul-19 14:33N 60°13' E 025°12'  

Dump ship's entire track history